Meteoalarm - Portugal e Ilhas:

Avisos Meteorológicos para Portugal e Ilhas


Visite-nos no Facebook:

Visite-nos no Facebook


Madeira Webcams:


Grupo MeteoRAM Facebook:

Junte-se ao melhor e mais completo grupo de Meteorologia da Região Autónoma da Madeira



Vento de: 17-10-2018 23:12 até: 19-10-2018 00:59 aviso para: Vento nível: Amarelo info button

Weather Underground Histórico da Estação

Diário Resumo para Outubro 18, 2018 Unidades:  Métrico    Inglês   Ambos
« Anterior Dia
Seguinte Dia »
Diário Semanal Mensal Anual Personalizado
  Atualmente: Alto: Baixo: Média:
Temperatura: 20.1 °C -17.8 °C 19.9 °C 19.9 °C
Ponto de orvalho: 11.1 °C -17.8 °C 10.9 °C 11.4 °C
Humidade: 56 % Humidity % 56 % 57 %
Velocidade do Vento: 13.4 km/h 0 km/h 3.5 km/h 11.1 km/h
Rajada de vento: 33.2 km/h 0 km/h - -
Vento:NNW - - NW
Pressão Atmosférica: 1021.2 hPa 0 hPa 1021.2 hPa -
Precipitação: 0 mm      
Historical Graphs
 
 
Dados Tabulares para Outubro 18, 2018
Hora Temperatura Ponto de orvalho Pressão Atmosférica Vento Velocidade do Vento Rajada de vento Humidade Taxa de Precipitação (Por hora)
-17.8 °C -17.8 °C 0 hPa Calm     Humidity % 0 mm
00:04 21 °C 14.9 °C 1023.2 hPa North 3.5 km/h 25.6 km/h 68 % 0 mm
00:09 21 °C 15.3 °C 1023.2 hPa North 5 km/h 28 km/h 70 % 0 mm
00:14 20.9 °C 15 °C 1023.2 hPa NNW 6.1 km/h 33.2 km/h 69 % 0 mm
00:19 20.8 °C 14.4 °C 1023.2 hPa NNW 17.2 km/h 35.6 km/h 67 % 0 mm
00:24 20.8 °C 14 °C 1022.9 hPa NNW 7.2 km/h 35.6 km/h 65 % 0 mm
00:29 20.9 °C 13.3 °C 1022.9 hPa NW 13.4 km/h 33.2 km/h 62 % 0 mm
00:34 20.9 °C 13.1 °C 1022.9 hPa North 9.7 km/h 33.2 km/h 61 % 0 mm
00:39 20.9 °C 13.3 °C 1022.9 hPa NW 11.1 km/h 30.6 km/h 62 % 0 mm
00:44 20.9 °C 13.6 °C 1022.9 hPa WNW 8.7 km/h 24.5 km/h 63 % 0 mm
00:49 20.8 °C 13.5 °C 1022.9 hPa NW 13.4 km/h 24.5 km/h 63 % 0 mm
00:54 20.8 °C 13.3 °C 1022.9 hPa NNW 28 km/h 42.8 km/h 62 % 0 mm
00:59 20.8 °C 13.3 °C 1022.9 hPa NNW 7.2 km/h 42.8 km/h 62 % 0 mm
01:04 20.8 °C 13 °C 1022.9 hPa NNW 9.7 km/h 42.8 km/h 61 % 0 mm
01:09 20.8 °C 13 °C 1022.9 hPa NNW 13.4 km/h 30.6 km/h 61 % 0 mm
01:14 20.8 °C 12.8 °C 1022.9 hPa NW 11.1 km/h 31.7 km/h 60 % 0 mm
01:20 20.8 °C 12.5 °C 1022.6 hPa WNW 12.2 km/h 36.7 km/h 59 % 0 mm
01:24 20.8 °C 12.5 °C 1022.6 hPa WNW 17.2 km/h 36.7 km/h 59 % 0 mm
01:29 20.7 °C 12.2 °C 1022.6 hPa NW 12.2 km/h 35.6 km/h 58 % 0 mm
01:34 20.7 °C 11.6 °C 1022.6 hPa NW 12.2 km/h 35.6 km/h 56 % 0 mm
01:39 20.6 °C 11.5 °C 1022.6 hPa WNW 8.7 km/h 23.3 km/h 56 % 0 mm
01:44 20.7 °C 11.9 °C 1022.2 hPa NW 6.1 km/h 34.3 km/h 57 % 0 mm
01:49 20.7 °C 12.9 °C 1022.6 hPa NW 8.7 km/h 34.3 km/h 61 % 0 mm
01:55 20.6 °C 13.1 °C 1022.6 hPa NNW 8.7 km/h 24.5 km/h 62 % 0 mm
01:59 20.6 °C 12.8 °C 1022.6 hPa NW 5 km/h 25.6 km/h 61 % 0 mm
02:04 20.5 °C 12.5 °C 1022.2 hPa NNW 6.1 km/h 25.6 km/h 60 % 0 mm
02:09 20.5 °C 12.5 °C 1022.2 hPa North 7.2 km/h 24.5 km/h 60 % 0 mm
02:14 20.4 °C 11.6 °C 1022.6 hPa NNW 11.1 km/h 24.5 km/h 57 % 0 mm
02:19 20.4 °C 11.3 °C 1022.2 hPa NW 7.2 km/h 19.5 km/h 56 % 0 mm
02:24 20.4 °C 11.3 °C 1021.9 hPa NNW 12.2 km/h 29.5 km/h 56 % 0 mm
02:29 20.3 °C 11.2 °C 1021.9 hPa NNW 9.7 km/h 29.5 km/h 56 % 0 mm
02:34 20.3 °C 11.2 °C 1022.2 hPa NNW 11.1 km/h 29.5 km/h 56 % 0 mm
02:39 20.2 °C 11.2 °C 1022.2 hPa North 8.7 km/h 21.9 km/h 56 % 0 mm
02:44 20.2 °C 11.2 °C 1022.2 hPa NNW 8.7 km/h 21.9 km/h 56 % 0 mm
02:49 20.1 °C 11.1 °C 1021.9 hPa NW 5 km/h 19.5 km/h 56 % 0 mm
02:55 20 °C 10.9 °C 1022.2 hPa NNW 17.2 km/h 34.3 km/h 56 % 0 mm
02:59 20 °C 10.9 °C 1022.2 hPa North 7.2 km/h 34.3 km/h 56 % 0 mm
03:05 20 °C 10.9 °C 1021.9 hPa North 6.1 km/h 34.3 km/h 56 % 0 mm
03:09 20 °C 10.9 °C 1021.9 hPa NNW 11.1 km/h 29.5 km/h 56 % 0 mm
03:14 20 °C 10.9 °C 1021.9 hPa NW 11.1 km/h 29.5 km/h 56 % 0 mm
03:19 20 °C 10.9 °C 1021.6 hPa West 11.1 km/h 23.3 km/h 56 % 0 mm
03:24 20 °C 10.9 °C 1021.6 hPa WNW 6.1 km/h 17.2 km/h 56 % 0 mm
03:29 20 °C 10.9 °C 1021.6 hPa NNW 9.7 km/h 21.9 km/h 56 % 0 mm
03:34 20.1 °C 11.1 °C 1021.6 hPa NNW 19.5 km/h 33.2 km/h 56 % 0 mm
03:39 20.2 °C 11.4 °C 1021.2 hPa NNW 14.8 km/h 33.2 km/h 57 % 0 mm
03:44 20.2 °C 11.4 °C 1021.6 hPa NW 8.7 km/h 35.6 km/h 57 % 0 mm
03:49 20.2 °C 11.2 °C 1021.6 hPa NNW 7.2 km/h 35.6 km/h 56 % 0 mm
03:54 20.1 °C 11.1 °C 1021.6 hPa NNW 6.1 km/h 31.7 km/h 56 % 0 mm
03:59 20.2 °C 11.2 °C 1021.6 hPa NNW 5 km/h 31.7 km/h 56 % 0 mm
04:04 20.2 °C 11.2 °C 1021.6 hPa NNW 7.2 km/h 25.6 km/h 56 % 0 mm
04:09 20.2 °C 11.2 °C 1021.2 hPa NNW 13.4 km/h 20.9 km/h 56 % 0 mm
04:14 20.4 °C 11.9 °C 1021.6 hPa NNE 9.7 km/h 24.5 km/h 58 % 0 mm
04:19 20.4 °C 11.9 °C 1021.6 hPa North 13.4 km/h 39.3 km/h 58 % 0 mm
04:24 20.3 °C 11.2 °C 1021.6 hPa NNW 7.2 km/h 39.3 km/h 56 % 0 mm
04:29 20.3 °C 11.2 °C 1021.2 hPa NW 12.2 km/h 21.9 km/h 56 % 0 mm
04:34 20.2 °C 11.2 °C 1021.2 hPa NW 11.1 km/h 27 km/h 56 % 0 mm
04:39 20.3 °C 11.2 °C 1021.2 hPa WNW 13.4 km/h 30.6 km/h 56 % 0 mm
04:45 20.3 °C 11.2 °C 1021.2 hPa WNW 9.7 km/h 30.6 km/h 56 % 0 mm
04:49 20.3 °C 11.2 °C 1021.2 hPa North 6.1 km/h 30.6 km/h 56 % 0 mm
04:54 20.3 °C 11.2 °C 1021.2 hPa North 17.2 km/h 34.3 km/h 56 % 0 mm
04:59 20.3 °C 11.5 °C 1021.2 hPa NNW 8.7 km/h 34.3 km/h 57 % 0 mm
05:04 20.3 °C 11.8 °C 1021.2 hPa NNW 17.2 km/h 33.2 km/h 58 % 0 mm
05:09 20.3 °C 11.5 °C 1021.2 hPa NNW 11.1 km/h 33.2 km/h 57 % 0 mm
05:14 20.2 °C 11.2 °C 1021.2 hPa NW 14.8 km/h 33.2 km/h 56 % 0 mm
05:19 20.3 °C 11.2 °C 1021.2 hPa West 12.2 km/h 21.9 km/h 56 % 0 mm
05:24 20.3 °C 11.2 °C 1021.6 hPa WNW 7.2 km/h 21.9 km/h 56 % 0 mm
05:29 20.2 °C 11.2 °C 1021.2 hPa North 12.2 km/h 23.3 km/h 56 % 0 mm
05:35 20.2 °C 11.2 °C 1021.2 hPa NW 12.2 km/h 23.3 km/h 56 % 0 mm
05:39 20.2 °C 11.2 °C 1021.2 hPa NW 12.2 km/h 23.3 km/h 56 % 0 mm
05:44 20.2 °C 11.2 °C 1021.6 hPa NW 12.2 km/h 23.3 km/h 56 % 0 mm
05:49 20.1 °C 11.1 °C 1021.6 hPa NW 17.2 km/h 28 km/h 56 % 0 mm
05:54 20.1 °C 11.1 °C 1021.2 hPa NW 21.9 km/h 40.4 km/h 56 % 0 mm
05:59 20.1 °C 11.1 °C 1021.2 hPa SW 21.9 km/h 40.4 km/h 56 % 0 mm
06:04 20.1 °C 11.1 °C 1021.6 hPa South 14.8 km/h 40.4 km/h 56 % 0 mm
06:09 20.1 °C 11.1 °C 1021.6 hPa NNW 9.7 km/h 40.4 km/h 56 % 0 mm
06:14 20.1 °C 11.1 °C 1021.6 hPa NNW 9.7 km/h 33.2 km/h 56 % 0 mm
06:19 20.1 °C 11.1 °C 1021.6 hPa NW 8.7 km/h 21.9 km/h 56 % 0 mm
06:25 20.1 °C 11.1 °C 1021.9 hPa WNW 11.1 km/h 28 km/h 56 % 0 mm
06:30 20.1 °C 11.1 °C 1021.6 hPa NW 20.9 km/h 39.3 km/h 56 % 0 mm
06:34 20.1 °C 11.1 °C 1021.9 hPa WNW 5 km/h 39.3 km/h 56 % 0 mm
06:39 20.1 °C 11.1 °C 1021.6 hPa NW 11.1 km/h 39.3 km/h 56 % 0 mm
06:44 20.1 °C 11.1 °C 1021.9 hPa NW 12.2 km/h 36.7 km/h 56 % 0 mm
06:49 20.1 °C 11.1 °C 1021.9 hPa NNW 8.7 km/h 45.4 km/h 56 % 4.83 mm
06:55 20.1 °C 11.1 °C 1021.9 hPa NNE 11.1 km/h 45.4 km/h 56 % 0 mm
06:59 20 °C 10.9 °C 1021.9 hPa NW 9.7 km/h 25.6 km/h 56 % 0 mm
07:04 20 °C 10.9 °C 1021.9 hPa NW 15.8 km/h 27 km/h 56 % 0 mm
07:09 20 °C 10.9 °C 1021.6 hPa NW 13.4 km/h 34.3 km/h 56 % 0 mm
07:14 20 °C 10.9 °C 1021.6 hPa NW 14.8 km/h 37.8 km/h 56 % 0 mm
07:19 20 °C 10.9 °C 1021.9 hPa NW 12.2 km/h 39.3 km/h 56 % 0 mm
07:24 19.9 °C 10.9 °C 1021.6 hPa NNW 13.4 km/h 39.3 km/h 56 % 0 mm
07:29 20 °C 10.9 °C 1021.9 hPa NNW 15.8 km/h 37.8 km/h 56 % 0 mm
07:34 20 °C 10.9 °C 1021.6 hPa North 8.7 km/h 37.8 km/h 56 % 0 mm
07:39 20 °C 10.9 °C 1021.9 hPa North 15.8 km/h 35.6 km/h 56 % 0 mm
07:44 20.1 °C 11.1 °C 1021.6 hPa NW 13.4 km/h 35.6 km/h 56 % 0 mm
07:49 20 °C 10.9 °C 1021.6 hPa NW 13.4 km/h 33.2 km/h 56 % 0 mm
07:54 20 °C 10.9 °C 1021.6 hPa NNW 13.4 km/h 28 km/h 56 % 0 mm
07:59 20.1 °C 11.1 °C 1021.2 hPa NNW 13.4 km/h 33.2 km/h 56 % 0 mm
MeteoMachico
Cumprimentos de Weather Underground - 1.75 mb

Script original por  Jim McMurry - jmcmurry@mwt.net Adaptado para o modelo por  Wim van der Kuil - Leuven-Template.eu

Equipamento que usamos:

Estação Meteorológica
Weatherwise ws-1080

IPCAM
Dericam H502W

Servidor
Digital Ocean

Weatherwise ws-1080

Dericam H502W

Digital Ocean